Time;durP1;ratioP1;P1;durP2;ratioP2;P2;SDS_P1;SDS_P2;PMS_P1;PMS_P2;Temp;Humidity;BMP_temperature;BMP_pressure;BME280_temperature;BME280_humidity;BME280_pressure;Samples;Min_cycle;Max_cycle;Signal;HPM_P1;HPM_P2
2022/05/20 00:01:14;;;;;;;13.17;7.80;;;19.30;65.60;;;;;;5042226;28;20285;-92
2022/05/20 00:03:42;;;;;;;18.27;8.93;;;19.30;65.80;;;;;;5048654;28;20238;-91
2022/05/20 00:06:11;;;;;;;15.97;8.10;;;19.30;65.90;;;;;;5052909;28;20230;-90
2022/05/20 00:08:39;;;;;;;23.27;10.67;;;19.20;66.30;;;;;;5048008;28;20691;-92
2022/05/20 00:11:06;;;;;;;16.83;8.60;;;19.20;66.20;;;;;;5051259;28;20203;-91
2022/05/20 00:13:34;;;;;;;16.07;8.20;;;19.10;66.20;;;;;;5053269;28;20226;-91
2022/05/20 00:16:01;;;;;;;18.93;9.33;;;19.20;66.50;;;;;;5052793;28;20243;-92
2022/05/20 00:18:28;;;;;;;14.63;7.77;;;19.10;66.40;;;;;;5051402;28;20266;-91
2022/05/20 00:20:57;;;;;;;20.03;9.90;;;19.10;66.20;;;;;;5043608;28;20208;-91
2022/05/20 00:23:26;;;;;;;20.00;9.47;;;19.00;65.90;;;;;;5050348;28;20252;-91
2022/05/20 00:25:53;;;;;;;27.43;11.47;;;19.00;65.80;;;;;;5050071;28;20216;-90
2022/05/20 00:28:23;;;;;;;21.10;11.03;;;19.00;65.70;;;;;;5046520;28;20873;-91
2022/05/20 00:30:52;;;;;;;24.37;12.83;;;19.00;66.20;;;;;;5049590;28;20215;-89
2022/05/20 00:33:25;;;;;;;17.87;10.90;;;18.90;66.00;;;;;;5047738;28;20754;-90
2022/05/20 00:35:52;;;;;;;19.00;11.00;;;18.90;66.40;;;;;;5049806;28;20271;-90
2022/05/20 00:38:20;;;;;;;22.03;11.47;;;18.80;66.60;;;;;;5041727;28;20625;-91
2022/05/20 00:40:51;;;;;;;18.33;10.93;;;18.80;66.80;;;;;;5050574;28;20289;-92
2022/05/20 00:43:35;;;;;;;22.53;11.47;;;18.80;67.40;;;;;;5048936;28;20250;-91
2022/05/20 00:46:06;;;;;;;19.83;10.93;;;18.70;67.50;;;;;;5049741;28;20672;-91
2022/05/20 00:48:33;;;;;;;17.90;9.90;;;18.70;66.90;;;;;;5051215;28;20238;-91
2022/05/20 00:51:07;;;;;;;19.33;10.67;;;18.70;66.60;;;;;;5050735;28;20250;-90
2022/05/20 00:53:39;;;;;;;21.20;11.23;;;18.70;67.60;;;;;;5050534;28;20348;-90
2022/05/20 00:56:13;;;;;;;22.13;11.60;;;18.70;67.50;;;;;;5042534;28;20626;-89
2022/05/20 00:58:42;;;;;;;18.77;11.20;;;18.60;67.10;;;;;;5042607;28;20226;-89
2022/05/20 01:01:10;;;;;;;18.37;11.50;;;18.60;67.20;;;;;;5045429;28;20298;-90
2022/05/20 01:03:40;;;;;;;20.30;11.43;;;18.60;67.10;;;;;;5048024;28;20219;-89
2022/05/20 01:06:10;;;;;;;21.87;12.20;;;18.60;67.20;;;;;;5044469;28;20235;-89
2022/05/20 01:08:39;;;;;;;24.77;13.43;;;18.60;67.30;;;;;;5047711;28;20249;-89
2022/05/20 01:11:06;;;;;;;21.13;11.97;;;18.50;67.50;;;;;;5048428;28;20269;-90
2022/05/20 01:13:35;;;;;;;20.47;12.60;;;18.50;67.40;;;;;;5047632;28;20228;-90
2022/05/20 01:16:10;;;;;;;19.47;11.50;;;18.50;68.20;;;;;;5043877;28;20675;-91
2022/05/20 01:18:40;;;;;;;18.63;12.03;;;18.50;68.60;;;;;;5048605;28;20217;-90
2022/05/20 01:21:07;;;;;;;17.90;12.27;;;18.50;68.50;;;;;;5050424;28;20247;-90
2022/05/20 01:23:38;;;;;;;19.23;11.80;;;18.40;68.40;;;;;;5048066;28;20245;-91
2022/05/20 01:26:07;;;;;;;20.90;12.70;;;18.40;68.70;;;;;;5049313;28;20218;-90
2022/05/20 01:28:35;;;;;;;23.17;13.17;;;18.40;68.20;;;;;;5049645;28;20722;-91
2022/05/20 01:31:04;;;;;;;24.97;13.90;;;18.40;68.20;;;;;;5048110;28;20296;-91
2022/05/20 01:33:34;;;;;;;22.67;14.37;;;18.40;68.20;;;;;;5046018;28;20223;-92
2022/05/20 01:36:05;;;;;;;22.13;14.27;;;18.40;68.70;;;;;;5047610;28;20214;-92
2022/05/20 01:38:32;;;;;;;22.93;13.83;;;18.40;69.10;;;;;;5048084;28;20215;-91
2022/05/20 01:41:05;;;;;;;23.83;14.17;;;18.30;69.30;;;;;;5048297;28;20272;-92
2022/05/20 01:43:47;;;;;;;19.17;12.20;;;18.40;70.10;;;;;;5046215;28;20262;-90
2022/05/20 01:46:24;;;;;;;18.23;12.20;;;18.30;71.20;;;;;;5048409;28;20211;-89
2022/05/20 01:49:00;;;;;;;18.13;13.07;;;18.30;70.40;;;;;;5048937;28;20227;-90
2022/05/20 01:51:34;;;;;;;29.20;16.33;;;18.30;70.50;;;;;;5047106;28;20233;-90
2022/05/20 01:54:06;;;;;;;21.23;13.90;;;18.30;70.50;;;;;;5050190;28;20218;-90
2022/05/20 01:56:39;;;;;;;25.07;15.90;;;18.30;70.90;;;;;;5049907;28;20238;-90
2022/05/20 01:59:13;;;;;;;25.13;15.17;;;18.30;71.50;;;;;;5046826;28;20282;-90
2022/05/20 02:01:46;;;;;;;24.23;16.33;;;18.30;71.80;;;;;;5047903;28;20251;-90
2022/05/20 02:04:21;;;;;;;22.17;14.90;;;18.30;72.30;;;;;;5047275;28;20667;-90
2022/05/20 02:06:54;;;;;;;20.57;14.13;;;18.30;72.50;;;;;;5049000;28;20606;-91
2022/05/20 02:09:28;;;;;;;21.53;15.53;;;18.30;72.70;;;;;;5046859;28;21587;-90
2022/05/20 02:11:57;;;;;;;23.53;15.90;;;18.30;71.90;;;;;;5044697;28;20269;-88
2022/05/20 02:14:33;;;;;;;22.60;14.70;;;18.40;72.10;;;;;;5046697;28;20219;-90
2022/05/20 02:17:09;;;;;;;21.67;14.50;;;18.30;71.70;;;;;;5032918;28;20207;-90
2022/05/20 02:19:40;;;;;;;25.83;15.63;;;18.40;71.60;;;;;;5045399;28;20242;-90
2022/05/20 02:22:14;;;;;;;24.80;15.87;;;18.40;72.10;;;;;;5047965;28;20223;-92
2022/05/20 02:24:44;;;;;;;20.93;14.70;;;18.40;73.20;;;;;;5047474;28;20234;-92
2022/05/20 02:27:17;;;;;;;23.73;14.00;;;18.40;72.10;;;;;;5047492;28;20588;-91
2022/05/20 02:29:49;;;;;;;26.53;15.70;;;18.40;71.60;;;;;;5046303;28;20214;-90
2022/05/20 02:32:22;;;;;;;24.77;16.63;;;18.40;71.60;;;;;;5047140;28;20210;-90
2022/05/20 02:34:51;;;;;;;22.47;15.03;;;18.40;71.50;;;;;;5046179;28;20561;-90
2022/05/20 02:37:22;;;;;;;27.10;16.30;;;18.40;71.00;;;;;;5048453;28;20199;-90
2022/05/20 02:39:49;;;;;;;21.07;15.13;;;18.40;71.40;;;;;;5048358;28;20652;-90
2022/05/20 02:42:19;;;;;;;25.40;16.10;;;18.30;71.50;;;;;;5048767;28;20636;-93
2022/05/20 02:44:46;;;;;;;22.40;15.10;;;18.30;71.80;;;;;;5046008;28;20272;-89
2022/05/20 02:47:14;;;;;;;33.90;19.17;;;18.30;71.60;;;;;;5045366;28;20314;-89
2022/05/20 02:49:41;;;;;;;22.07;15.77;;;18.30;71.80;;;;;;5049218;28;20317;-91
2022/05/20 02:52:11;;;;;;;22.20;16.63;;;18.30;71.70;;;;;;5046228;28;20302;-90
2022/05/20 02:54:40;;;;;;;21.93;15.43;;;18.20;71.70;;;;;;5049297;28;20215;-89
2022/05/20 02:57:07;;;;;;;26.90;17.50;;;18.20;71.80;;;;;;5045046;28;20254;-89
2022/05/20 03:05:07;;;;;;;26.90;18.30;;;18.20;72.20;;;;;;5043685;28;20249;-94
2022/05/20 03:07:37;;;;;;;23.97;16.70;;;18.20;72.20;;;;;;5047811;28;20248;-90
2022/05/20 03:10:05;;;;;;;23.77;16.47;;;18.10;72.20;;;;;;5049469;28;20226;-93
2022/05/20 03:12:34;;;;;;;30.37;19.20;;;18.10;72.20;;;;;;5044150;28;20221;-90
2022/05/20 03:15:06;;;;;;;23.00;15.90;;;18.10;72.30;;;;;;5049585;28;20215;-92
2022/05/20 03:17:34;;;;;;;26.90;18.70;;;18.10;72.50;;;;;;5047538;28;20301;-91
2022/05/20 03:20:03;;;;;;;28.80;19.37;;;18.10;72.30;;;;;;5049405;28;20673;-92
2022/05/20 03:22:30;;;;;;;24.27;17.40;;;18.00;72.40;;;;;;5042939;28;20663;-90
2022/05/20 03:24:58;;;;;;;29.40;19.57;;;18.00;72.50;;;;;;5048714;28;20716;-92
2022/05/20 03:27:26;;;;;;;34.43;21.17;;;18.00;72.90;;;;;;5045658;28;20284;-89
2022/05/20 03:29:53;;;;;;;30.53;20.50;;;17.90;72.70;;;;;;5047445;28;20225;-89
2022/05/20 03:32:22;;;;;;;31.70;21.73;;;17.90;72.80;;;;;;5044889;28;20772;-88
2022/05/20 03:34:49;;;;;;;24.27;19.07;;;17.90;73.30;;;;;;5046771;28;20212;-90
2022/05/20 03:37:16;;;;;;;27.90;20.73;;;17.90;73.10;;;;;;5048514;28;20242;-89
2022/05/20 03:39:43;;;;;;;29.37;21.17;;;17.80;73.20;;;;;;5032750;28;20774;-89
2022/05/20 03:42:10;;;;;;;32.50;21.93;;;17.80;73.30;;;;;;5042600;28;20210;-90
2022/05/20 03:44:38;;;;;;;30.90;22.07;;;17.80;73.40;;;;;;5048146;28;20250;-93
2022/05/20 03:47:05;;;;;;;27.30;20.43;;;17.80;73.50;;;;;;5051217;28;20260;-90
2022/05/20 03:49:34;;;;;;;36.37;23.70;;;17.70;73.70;;;;;;5049819;28;20213;-90
2022/05/20 03:52:01;;;;;;;30.53;21.77;;;17.80;74.20;;;;;;5046663;28;20223;-89
2022/05/20 03:54:33;;;;;;;33.00;22.83;;;17.80;74.00;;;;;;5057659;28;20211;-86
2022/05/20 03:57:05;;;;;;;30.97;21.23;;;17.80;74.60;;;;;;5053205;28;20242;-89
2022/05/20 03:59:36;;;;;;;30.87;21.57;;;17.70;74.50;;;;;;5052302;28;20219;-91
2022/05/20 04:02:05;;;;;;;32.70;22.20;;;17.70;74.10;;;;;;5051247;28;20286;-89
2022/05/20 04:04:38;;;;;;;34.33;22.33;;;17.70;74.50;;;;;;5055351;28;20228;-90
2022/05/20 04:07:08;;;;;;;33.37;23.23;;;17.70;75.00;;;;;;5047837;28;20215;-91
2022/05/20 04:09:35;;;;;;;37.57;24.40;;;17.70;74.50;;;;;;5050714;28;20293;-89
2022/05/20 04:12:06;;;;;;;32.77;24.40;;;17.70;74.50;;;;;;5048635;28;20238;-91
2022/05/20 04:14:34;;;;;;;37.40;24.83;;;17.70;74.60;;;;;;5047272;28;20733;-94
2022/05/20 04:17:01;;;;;;;33.87;23.83;;;17.70;74.50;;;;;;5048938;28;20680;-90
2022/05/20 04:19:30;;;;;;;37.73;25.03;;;17.70;74.40;;;;;;5055020;28;20206;-90
2022/05/20 04:22:03;;;;;;;36.40;25.83;;;17.70;74.90;;;;;;5055453;28;20246;-93
2022/05/20 04:24:30;;;;;;;33.87;24.60;;;17.70;75.60;;;;;;5045704;28;20277;-92
2022/05/20 04:26:57;;;;;;;34.90;25.77;;;17.70;74.90;;;;;;5049579;28;20917;-93
2022/05/20 04:29:25;;;;;;;39.27;26.17;;;17.70;75.50;;;;;;5048591;28;20264;-93
2022/05/20 04:31:55;;;;;;;36.33;26.67;;;17.70;76.20;;;;;;5049341;28;20223;-94
2022/05/20 04:34:23;;;;;;;34.43;25.30;;;17.70;76.60;;;;;;5051008;28;20206;-90
2022/05/20 04:36:50;;;;;;;37.07;26.87;;;17.80;76.50;;;;;;5046142;28;20748;-89
2022/05/20 04:39:19;;;;;;;38.07;26.73;;;17.70;76.30;;;;;;5047835;28;20586;-94
2022/05/20 04:47:31;;;;;;;38.37;26.33;;;17.80;76.60;;;;;;5039719;28;20217;-95
2022/05/20 04:49:59;;;;;;;36.10;25.90;;;17.80;77.30;;;;;;5046181;28;20214;-94
2022/05/20 04:52:27;;;;;;;35.33;25.80;;;17.80;76.90;;;;;;5043395;28;20745;-95
2022/05/20 04:54:55;;;;;;;33.53;25.43;;;17.80;77.40;;;;;;5033789;28;20213;-92
2022/05/20 04:57:29;;;;;;;35.37;25.17;;;17.80;77.40;;;;;;5049432;28;20237;-93
2022/05/20 05:00:01;;;;;;;37.70;26.63;;;17.80;78.10;;;;;;5048429;28;20540;-94
2022/05/20 05:02:29;;;;;;;40.43;28.70;;;17.90;78.20;;;;;;5044528;28;20219;-96
2022/05/20 05:04:56;;;;;;;45.03;29.37;;;17.90;77.90;;;;;;5039663;28;20223;-91
2022/05/20 05:07:23;;;;;;;52.20;31.47;;;17.90;77.80;;;;;;5047105;28;20218;-93
2022/05/20 05:09:51;;;;;;;40.07;28.90;;;17.90;78.10;;;;;;5048053;28;20229;-90
2022/05/20 05:12:22;;;;;;;38.50;28.23;;;17.90;78.40;;;;;;5049192;28;20215;-92
2022/05/20 05:14:51;;;;;;;37.13;27.80;;;18.00;79.00;;;;;;5049203;28;20210;-90
2022/05/20 05:18:09;;;;;;;35.33;27.80;;;18.00;78.80;;;;;;5047942;28;20226;-93
2022/05/20 05:20:11;;;;;;;38.57;29.33;;;18.00;79.00;;;;;;5047364;28;20215;-90
2022/05/20 05:22:38;;;;;;;40.80;30.20;;;18.00;79.30;;;;;;5031717;28;20223;-93
2022/05/20 05:25:07;;;;;;;41.43;29.23;;;18.00;79.20;;;;;;5046906;28;20239;-91
2022/05/20 05:27:36;;;;;;;42.57;29.70;;;18.10;79.50;;;;;;5047890;28;20237;-89
2022/05/20 05:30:05;;;;;;;47.90;31.03;;;18.10;79.40;;;;;;5048783;28;20292;-89
2022/05/20 05:32:32;;;;;;;41.13;31.57;;;18.20;79.50;;;;;;5043841;28;20671;-88
2022/05/20 05:35:00;;;;;;;41.20;29.17;;;18.20;79.10;;;;;;5045162;28;20222;-90
2022/05/20 05:37:28;;;;;;;47.70;31.53;;;18.30;79.20;;;;;;5046354;28;20641;-88
2022/05/20 05:39:56;;;;;;;45.83;30.97;;;18.30;79.60;;;;;;5032359;28;20219;-90
2022/05/20 05:42:23;;;;;;;50.67;32.13;;;18.30;79.50;;;;;;5046818;28;20237;-91
2022/05/20 05:44:53;;;;;;;41.77;29.93;;;18.40;79.70;;;;;;5047584;28;20238;-90
2022/05/20 05:47:20;;;;;;;42.10;29.13;;;18.50;79.90;;;;;;5034391;28;20647;-90
2022/05/20 05:49:47;;;;;;;36.07;28.50;;;18.50;79.40;;;;;;5046253;28;20292;-91
2022/05/20 05:52:14;;;;;;;37.20;28.53;;;18.60;79.50;;;;;;5044927;28;20211;-89
2022/05/20 05:54:44;;;;;;;44.63;31.07;;;18.60;79.80;;;;;;5049850;28;20246;-92
2022/05/20 05:57:14;;;;;;;40.10;29.17;;;18.70;80.10;;;;;;5046072;28;20220;-92
2022/05/20 05:59:43;;;;;;;49.70;31.67;;;18.70;79.80;;;;;;5039631;28;20219;-93
2022/05/20 06:02:13;;;;;;;41.03;28.83;;;18.80;80.40;;;;;;5045389;28;20214;-92
2022/05/20 06:04:43;;;;;;;41.40;29.30;;;18.80;80.50;;;;;;5050774;28;20248;-90
2022/05/20 06:07:10;;;;;;;35.40;28.47;;;18.90;80.50;;;;;;5048034;28;20212;-89
2022/05/20 06:09:37;;;;;;;38.50;28.67;;;19.00;80.30;;;;;;5050315;28;20631;-90
2022/05/20 06:12:05;;;;;;;55.63;32.20;;;19.00;80.30;;;;;;5043182;28;20570;-89
2022/05/20 06:14:33;;;;;;;35.40;26.57;;;19.10;79.90;;;;;;5047981;28;20326;-92
2022/05/20 06:17:19;;;;;;;37.30;28.33;;;19.10;79.80;;;;;;5052072;28;20271;-92
2022/05/20 06:19:46;;;;;;;39.27;29.27;;;19.20;81.00;;;;;;5053830;28;20720;-89
2022/05/20 06:22:14;;;;;;;42.77;29.27;;;19.20;79.70;;;;;;5047148;28;20601;-88
2022/05/20 06:24:41;;;;;;;46.03;31.53;;;19.30;80.00;;;;;;5049041;28;20219;-89
2022/05/20 06:27:14;;;;;;;45.23;29.43;;;19.30;79.60;;;;;;5049081;28;20207;-89
2022/05/20 06:29:51;;;;;;;40.93;29.50;;;19.40;80.10;;;;;;5048508;28;20212;-89
2022/05/20 06:32:21;;;;;;;44.00;30.77;;;19.50;80.20;;;;;;5046854;28;20277;-90
2022/05/20 06:40:21;;;;;;;45.50;30.43;;;19.60;80.30;;;;;;5036335;28;20235;-89
2022/05/20 06:42:49;;;;;;;40.50;28.50;;;19.70;80.10;;;;;;5031550;28;20731;-89
2022/05/20 06:45:17;;;;;;;39.43;28.30;;;19.70;79.50;;;;;;5036077;28;20259;-90
2022/05/20 06:47:45;;;;;;;44.30;31.33;;;19.80;79.70;;;;;;5047350;28;20230;-89
2022/05/20 06:50:14;;;;;;;45.87;30.83;;;19.90;80.40;;;;;;5045946;28;20243;-89
2022/05/20 06:52:42;;;;;;;38.37;29.23;;;19.90;79.60;;;;;;5044589;28;20247;-90
2022/05/20 06:55:10;;;;;;;44.60;29.90;;;20.00;80.10;;;;;;5045286;28;21887;-89
2022/05/20 06:57:40;;;;;;;42.40;30.60;;;20.00;80.10;;;;;;5046427;28;20224;-89
2022/05/20 07:00:11;;;;;;;49.63;30.80;;;20.10;80.50;;;;;;5038269;28;20216;-89
2022/05/20 07:02:39;;;;;;;48.73;32.13;;;20.20;80.70;;;;;;5045290;28;21629;-89
2022/05/20 07:05:09;;;;;;;40.40;27.27;;;20.20;80.30;;;;;;5045079;28;20258;-89
2022/05/20 07:07:36;;;;;;;39.87;29.63;;;20.30;80.10;;;;;;5046148;28;20226;-88
2022/05/20 07:10:04;;;;;;;37.57;28.80;;;20.30;80.00;;;;;;5044979;28;20303;-90
2022/05/20 07:12:31;;;;;;;38.17;29.57;;;20.40;80.20;;;;;;5046305;28;20224;-88
2022/05/20 07:15:03;;;;;;;48.70;31.17;;;20.50;80.20;;;;;;5048613;28;20209;-96
2022/05/20 07:17:31;;;;;;;37.60;27.73;;;20.50;79.80;;;;;;5046703;28;20270;-90
2022/05/20 07:20:00;;;;;;;40.57;27.67;;;20.60;79.30;;;;;;5050507;28;20269;-90
2022/05/20 07:22:29;;;;;;;39.97;27.73;;;20.70;78.40;;;;;;5044290;28;20239;-87
2022/05/20 07:24:56;;;;;;;42.17;28.40;;;20.70;78.20;;;;;;5047323;28;20227;-89
2022/05/20 07:27:23;;;;;;;35.90;26.37;;;20.80;77.90;;;;;;5048828;28;20215;-91
2022/05/20 07:29:50;;;;;;;32.77;24.97;;;20.80;77.60;;;;;;5051488;28;20223;-89
2022/05/20 07:32:21;;;;;;;51.50;31.80;;;20.90;77.80;;;;;;5048642;28;20655;-89
2022/05/20 07:34:48;;;;;;;34.30;26.37;;;20.90;77.20;;;;;;5054803;28;20739;-90
2022/05/20 07:37:21;;;;;;;35.73;25.07;;;20.90;77.60;;;;;;5054050;28;20220;-88
2022/05/20 07:39:52;;;;;;;32.50;25.07;;;21.00;77.60;;;;;;5053950;28;20239;-89
2022/05/20 07:42:21;;;;;;;32.73;24.97;;;21.00;77.50;;;;;;5053856;28;20217;-90
2022/05/20 07:44:49;;;;;;;31.97;23.80;;;21.10;76.80;;;;;;5052247;28;20223;-88
2022/05/20 07:47:17;;;;;;;31.87;23.60;;;21.20;76.50;;;;;;5051828;28;20211;-89
2022/05/20 07:49:45;;;;;;;33.47;23.70;;;21.20;76.40;;;;;;5051086;28;20301;-89
2022/05/20 07:53:19;;;;;;;33.60;23.33;;;21.20;76.50;;;;;;5048754;28;20224;-89
2022/05/20 07:55:10;;;;;;;31.93;23.30;;;21.30;76.70;;;;;;5052391;28;20218;-91
2022/05/20 07:57:38;;;;;;;37.03;24.00;;;21.40;76.00;;;;;;5053086;28;20213;-89
2022/05/20 08:00:09;;;;;;;26.90;21.30;;;21.50;75.80;;;;;;5052497;28;20251;-92
2022/05/20 08:02:36;;;;;;;33.30;23.57;;;21.50;75.70;;;;;;5050065;28;20217;-91
2022/05/20 08:05:04;;;;;;;36.23;24.33;;;21.60;75.80;;;;;;5047877;28;20219;-95
2022/05/20 08:07:35;;;;;;;26.97;20.40;;;21.70;75.60;;;;;;5030853;28;20210;-90
2022/05/20 08:10:04;;;;;;;30.47;21.93;;;21.80;75.60;;;;;;5047016;28;20295;-90
2022/05/20 08:12:33;;;;;;;26.17;18.63;;;21.90;75.80;;;;;;5038294;28;20866;-90
2022/05/20 08:15:00;;;;;;;28.13;18.73;;;21.90;74.70;;;;;;5050177;28;20222;-92
2022/05/20 08:17:29;;;;;;;24.50;17.37;;;22.00;74.90;;;;;;5044028;28;20240;-89
2022/05/20 08:19:57;;;;;;;21.90;15.43;;;22.10;74.10;;;;;;5046200;28;20292;-93
2022/05/20 08:22:24;;;;;;;21.10;16.23;;;22.20;73.60;;;;;;5049648;28;20216;-95
2022/05/20 08:24:54;;;;;;;18.03;13.73;;;22.30;72.80;;;;;;5051448;28;20340;-95
2022/05/20 08:27:22;;;;;;;28.43;17.13;;;22.30;72.00;;;;;;5044389;28;20224;-90
2022/05/20 08:29:51;;;;;;;19.00;14.40;;;22.50;72.00;;;;;;5045456;28;20212;-89
2022/05/20 08:32:21;;;;;;;21.03;16.00;;;22.50;71.40;;;;;;5045300;28;20265;-95
2022/05/20 08:34:50;;;;;;;23.03;15.80;;;22.50;70.90;;;;;;5047913;28;20735;-88
2022/05/20 08:37:19;;;;;;;21.40;15.13;;;22.60;70.70;;;;;;5048615;28;20270;-90
2022/05/20 08:39:46;;;;;;;21.07;15.27;;;22.70;70.10;;;;;;5047908;28;20208;-93
2022/05/20 08:42:19;;;;;;;19.27;13.37;;;22.70;70.00;;;;;;5051709;28;20208;-94
2022/05/20 08:44:51;;;;;;;20.70;14.80;;;22.80;69.70;;;;;;5046336;28;20307;-93
2022/05/20 08:47:23;;;;;;;19.90;13.23;;;22.80;69.40;;;;;;5045961;28;20268;-89
2022/05/20 08:49:53;;;;;;;19.70;13.10;;;22.80;68.80;;;;;;5051761;28;20258;-93
2022/05/20 08:52:22;;;;;;;19.00;13.30;;;22.90;68.90;;;;;;5050747;28;20207;-93
2022/05/20 08:54:49;;;;;;;18.73;14.27;;;22.90;68.90;;;;;;5051899;28;20223;-96
2022/05/20 08:57:21;;;;;;;18.07;14.37;;;22.90;69.00;;;;;;5051588;28;20613;-93
2022/05/20 08:59:54;;;;;;;19.77;13.33;;;22.90;68.40;;;;;;5052400;28;20598;-96
2022/05/20 09:02:22;;;;;;;19.90;14.27;;;22.90;67.80;;;;;;5045334;28;20299;-96
2022/05/20 09:04:51;;;;;;;25.03;15.37;;;22.90;68.20;;;;;;5042692;28;20267;-90
2022/05/20 09:07:20;;;;;;;23.40;14.60;;;22.90;67.90;;;;;;5041189;28;20207;-90
2022/05/20 09:09:49;;;;;;;20.30;14.20;;;22.90;67.90;;;;;;5047817;28;20269;-90
2022/05/20 09:12:29;;;;;;;21.00;14.93;;;22.90;68.10;;;;;;5049222;28;20742;-89
2022/05/20 09:18:02;;;;;;;24.73;14.67;;;22.80;68.30;;;;;;5052621;28;20294;-88
2022/05/20 09:20:32;;;;;;;19.73;13.17;;;22.80;68.30;;;;;;5032287;28;20255;-89
2022/05/20 09:23:02;;;;;;;19.67;13.73;;;22.70;68.70;;;;;;5045967;28;20219;-89
2022/05/20 09:25:32;;;;;;;19.93;13.00;;;22.80;69.10;;;;;;5040565;28;20252;-88
2022/05/20 09:28:23;;;;;;;22.77;12.47;;;22.70;68.70;;;;;;5051685;28;20224;-90
2022/05/20 09:30:55;;;;;;;16.97;12.20;;;22.60;69.30;;;;;;5058853;28;20295;-89
2022/05/20 09:33:25;;;;;;;21.67;14.23;;;22.60;70.50;;;;;;5050745;28;20224;-89
2022/05/20 09:35:59;;;;;;;18.70;12.47;;;22.60;70.70;;;;;;5049155;28;20481;-89
2022/05/20 09:38:37;;;;;;;17.83;11.77;;;22.50;71.60;;;;;;5050302;28;20301;-88
2022/05/20 09:41:14;;;;;;;17.33;11.90;;;22.60;70.60;;;;;;5049980;28;20212;-90
2022/05/20 09:43:44;;;;;;;18.67;12.13;;;22.50;71.60;;;;;;5049160;28;20256;-90
2022/05/20 09:46:30;;;;;;;18.23;12.43;;;22.50;71.50;;;;;;5049675;28;20663;-87
2022/05/20 09:49:02;;;;;;;16.80;11.60;;;22.50;70.30;;;;;;5050003;28;20218;-90
2022/05/20 09:51:37;;;;;;;15.70;11.43;;;22.50;70.70;;;;;;5049881;28;20575;-91
2022/05/20 09:54:14;;;;;;;13.73;10.73;;;22.50;70.70;;;;;;5050236;28;20396;-93
2022/05/20 09:56:47;;;;;;;19.43;13.13;;;22.60;70.00;;;;;;5043764;28;20647;-91
2022/05/20 10:53:54;;;;;;;28.60;22.07;;;19.70;80.80;;;;;;5148541;27;20844;-92
2022/05/20 10:56:50;;;;;;;21.67;17.20;;;20.40;90.40;;;;;;5127969;28;20214;-93
2022/05/20 10:59:31;;;;;;;24.70;19.70;;;20.60;89.20;;;;;;5120212;28;20298;-89
2022/05/20 11:02:11;;;;;;;21.70;18.90;;;20.70;87.80;;;;;;5120317;28;20317;-90
2022/05/20 11:04:54;;;;;;;25.17;19.37;;;20.80;86.60;;;;;;5128518;28;20217;-93
2022/05/20 11:07:56;;;;;;;24.70;19.90;;;20.80;86.90;;;;;;5134613;27;20253;-96
2022/05/20 11:10:38;;;;;;;27.27;20.63;;;20.80;86.60;;;;;;5148409;27;20210;-89
2022/05/20 11:13:16;;;;;;;26.80;21.23;;;20.80;86.60;;;;;;5113524;28;20263;-89
2022/05/20 11:15:58;;;;;;;22.20;19.83;;;20.80;86.30;;;;;;5106981;28;20206;-91
2022/05/20 11:18:42;;;;;;;23.57;20.37;;;20.80;87.00;;;;;;5117097;27;20244;-90
2022/05/20 11:21:40;;;;;;;20.03;17.47;;;20.90;87.70;;;;;;5126120;27;20285;-88
2022/05/20 11:24:34;;;;;;;33.60;23.13;;;20.90;87.40;;;;;;5125857;27;20245;-93
2022/05/20 11:27:28;;;;;;;21.77;19.43;;;20.90;87.40;;;;;;5098516;28;20260;-90
2022/05/20 11:30:13;;;;;;;24.57;21.57;;;20.90;87.10;;;;;;5115958;28;20193;-90
2022/05/20 11:33:09;;;;;;;27.63;21.77;;;20.90;87.00;;;;;;5127695;28;20308;-90
2022/05/20 11:36:05;;;;;;;27.73;22.63;;;20.80;86.90;;;;;;5110542;27;20255;-95
2022/05/20 11:38:51;;;;;;;25.30;19.80;;;20.90;86.70;;;;;;5143648;27;20333;-91
2022/05/20 11:41:31;;;;;;;22.57;19.53;;;20.90;86.20;;;;;;5148434;27;20304;-90
2022/05/20 11:44:28;;;;;;;23.50;19.90;;;20.90;86.10;;;;;;5111607;27;20242;-89
2022/05/20 11:47:25;;;;;;;23.13;20.50;;;20.80;86.00;;;;;;5125196;28;20212;-91
2022/05/20 11:50:10;;;;;;;25.63;19.93;;;20.80;85.80;;;;;;5119908;28;20208;-92
2022/05/20 11:52:51;;;;;;;26.40;19.37;;;20.80;86.80;;;;;;5126877;28;20209;-91
2022/05/20 11:55:21;;;;;;;24.63;18.13;;;20.80;84.90;;;;;;5114945;28;20261;-91
2022/05/20 11:57:51;;;;;;;23.27;16.20;;;20.70;82.90;;;;;;5114954;28;20225;-92
2022/05/20 12:00:21;;;;;;;16.97;13.47;;;20.70;82.70;;;;;;5114769;28;20287;-91
2022/05/20 12:02:51;;;;;;;26.07;14.93;;;20.60;81.90;;;;;;5097811;28;20363;-92
2022/05/20 12:05:22;;;;;;;18.50;13.63;;;20.50;81.30;;;;;;5124514;28;20210;-93
2022/05/20 12:07:51;;;;;;;18.80;13.20;;;20.50;81.60;;;;;;5095629;28;20207;-96
2022/05/20 12:10:43;;;;;;;19.13;12.93;;;20.40;82.30;;;;;;5094839;28;20241;-94
2022/05/20 12:13:20;;;;;;;17.67;13.13;;;20.30;83.20;;;;;;5093034;28;20214;-92
2022/05/20 12:15:49;;;;;;;14.70;11.67;;;20.20;82.20;;;;;;5092692;28;20338;-93
2022/05/20 12:24:33;;;;;;;21.13;13.40;;;20.00;83.60;;;;;;5091867;28;20217;-92
2022/05/20 12:27:08;;;;;;;18.50;12.07;;;19.90;83.40;;;;;;5092041;28;20257;-92
2022/05/20 12:29:59;;;;;;;15.33;10.97;;;19.80;83.30;;;;;;5093032;28;20268;-91
2022/05/20 12:32:52;;;;;;;13.03;9.53;;;19.70;83.20;;;;;;5107894;28;20210;-94
2022/05/20 12:35:25;;;;;;;7.93;5.93;;;19.70;82.50;;;;;;5112226;28;20402;-91
2022/05/20 12:37:55;;;;;;;9.50;4.87;;;19.60;81.80;;;;;;5036106;28;2049495;-89
2022/05/20 12:40:49;;;;;;;10.57;3.67;;;19.50;81.50;;;;;;5089569;28;20543;-94
2022/05/20 12:43:17;;;;;;;11.57;4.57;;;19.30;75.70;;;;;;5091767;28;20242;-91
2022/05/20 12:45:54;;;;;;;8.07;3.60;;;19.10;76.00;;;;;;5076817;28;20202;-94
2022/05/20 12:48:25;;;;;;;8.10;2.93;;;18.80;75.70;;;;;;5072358;28;20195;-90
2022/05/20 12:50:59;;;;;;;11.27;4.33;;;18.70;75.60;;;;;;5070801;28;20194;-92
2022/05/20 12:53:30;;;;;;;10.37;3.87;;;18.40;76.30;;;;;;5072781;28;20198;-95
2022/05/20 12:55:58;;;;;;;8.83;4.00;;;18.20;77.00;;;;;;5072411;28;20209;-91
2022/05/20 12:58:29;;;;;;;11.97;4.47;;;18.00;78.00;;;;;;5076537;28;20299;-93
2022/05/20 13:01:01;;;;;;;9.97;4.67;;;17.70;78.40;;;;;;5078187;28;20190;-91
2022/05/20 13:03:37;;;;;;;7.43;3.77;;;17.60;79.00;;;;;;5093233;28;20292;-92
2022/05/20 13:06:10;;;;;;;8.67;3.33;;;17.40;80.10;;;;;;5091804;28;20219;-93
2022/05/20 13:08:45;;;;;;;15.53;4.20;;;17.20;81.50;;;;;;5090935;28;20200;-90
2022/05/20 13:11:15;;;;;;;8.87;3.40;;;17.10;83.00;;;;;;5093342;28;20291;-93
2022/05/20 13:13:45;;;;;;;13.93;3.63;;;17.00;83.90;;;;;;5093575;28;20533;-90
2022/05/20 13:16:15;;;;;;;15.43;4.27;;;16.90;83.80;;;;;;5092735;28;20294;-89
2022/05/20 13:18:44;;;;;;;9.50;3.30;;;16.80;84.50;;;;;;5089892;28;20204;-92
2022/05/20 13:21:16;;;;;;;8.67;2.93;;;16.80;84.60;;;;;;5086802;28;20255;-91
2022/05/20 13:23:45;;;;;;;14.60;3.87;;;16.80;85.50;;;;;;5092277;28;20251;-91
2022/05/20 13:26:20;;;;;;;11.63;3.70;;;16.70;86.30;;;;;;5092496;28;20232;-89
2022/05/20 13:28:48;;;;;;;12.40;4.60;;;16.70;87.10;;;;;;5082859;28;20287;-93
2022/05/20 13:31:24;;;;;;;12.70;4.60;;;16.70;86.20;;;;;;5071946;28;20190;-91
2022/05/20 13:33:51;;;;;;;8.90;4.00;;;16.60;86.10;;;;;;5072739;28;20203;-92
2022/05/20 13:36:22;;;;;;;12.97;4.30;;;16.60;86.20;;;;;;5072158;28;20726;-90
2022/05/20 13:38:53;;;;;;;7.27;3.00;;;16.60;86.80;;;;;;5076271;28;20208;-91
2022/05/20 13:41:21;;;;;;;9.93;3.23;;;16.60;86.70;;;;;;5091852;28;20288;-92
2022/05/20 13:43:53;;;;;;;13.33;3.67;;;16.60;86.30;;;;;;5064390;28;20312;-91
2022/05/20 13:49:16;;;;;;;13.07;4.47;;;16.60;86.30;;;;;;5064317;28;20854;-89
2022/05/20 13:51:47;;;;;;;9.67;3.60;;;16.50;86.50;;;;;;5051315;28;20211;-88
2022/05/20 13:54:18;;;;;;;13.87;2.97;;;16.60;86.80;;;;;;5066761;28;20290;-89
2022/05/20 13:56:48;;;;;;;8.83;2.73;;;16.50;86.70;;;;;;5083728;28;20288;-89
2022/05/20 13:59:35;;;;;;;9.50;4.37;;;16.50;86.80;;;;;;5091442;28;20568;-89
2022/05/20 14:02:13;;;;;;;8.97;2.70;;;16.50;86.80;;;;;;5084237;28;20217;-90
2022/05/20 14:04:44;;;;;;;10.83;2.83;;;16.50;87.60;;;;;;5050507;28;20209;-90
2022/05/20 14:07:16;;;;;;;14.83;4.27;;;16.50;87.20;;;;;;5080125;28;20215;-90
2022/05/20 14:09:49;;;;;;;6.93;2.87;;;16.50;87.80;;;;;;5091310;28;20653;-89
2022/05/20 14:12:19;;;;;;;7.37;3.00;;;16.60;87.80;;;;;;5091515;28;20226;-89
2022/05/20 14:14:53;;;;;;;11.37;4.07;;;16.50;86.80;;;;;;5091227;28;20286;-90